createdAt,value
2018-09-30T00:01:56.588Z,11.50
2018-09-30T00:04:26.497Z,11.50
2018-09-30T00:06:55.211Z,11.50
2018-09-30T00:09:29.909Z,11.40
2018-09-30T00:12:00.427Z,11.40
2018-09-30T00:14:29.131Z,11.30
2018-09-30T00:16:58.639Z,11.30
2018-09-30T00:19:29.380Z,11.40
2018-09-30T00:21:58.199Z,11.40
2018-09-30T00:24:32.070Z,11.40
2018-09-30T00:27:06.105Z,11.40
2018-09-30T00:29:36.308Z,11.30
2018-09-30T00:32:05.118Z,11.30
2018-09-30T00:34:34.091Z,11.30
2018-09-30T00:37:02.892Z,11.40
2018-09-30T00:39:31.683Z,11.30
2018-09-30T00:42:00.356Z,11.30
2018-09-30T00:44:29.101Z,11.30
2018-09-30T00:46:57.932Z,11.20
2018-09-30T00:49:27.092Z,11.20
2018-09-30T00:51:55.723Z,11.30
2018-09-30T00:54:25.813Z,11.30
2018-09-30T00:56:54.442Z,11.40
2018-09-30T00:59:23.171Z,11.40
2018-09-30T01:01:53.556Z,11.30
2018-09-30T01:04:22.804Z,11.30
2018-09-30T01:06:51.600Z,11.20
2018-09-30T01:09:20.400Z,11.00
2018-09-30T01:11:49.553Z,11.10
2018-09-30T01:14:18.351Z,11.10
2018-09-30T01:16:47.211Z,11.10
2018-09-30T01:19:15.972Z,9.10
2018-09-30T01:21:44.766Z,11.00
2018-09-30T01:24:13.491Z,10.80
2018-09-30T01:26:42.299Z,10.90
2018-09-30T01:29:11.532Z,11.00
2018-09-30T01:31:40.105Z,9.40
2018-09-30T01:34:08.715Z,11.00
2018-09-30T01:36:37.412Z,11.00
2018-09-30T01:39:06.997Z,11.10
2018-09-30T01:41:35.730Z,11.00
2018-09-30T01:44:04.530Z,11.00
2018-09-30T01:46:33.313Z,10.90
2018-09-30T01:49:02.025Z,10.90
2018-09-30T01:51:30.991Z,10.90
2018-09-30T01:54:02.545Z,10.90
2018-09-30T01:56:31.249Z,10.80
2018-09-30T01:59:00.074Z,10.80
2018-09-30T02:01:29.960Z,10.80
2018-09-30T02:03:59.276Z,10.70
2018-09-30T02:06:27.990Z,10.70
2018-09-30T02:08:57.104Z,10.70
2018-09-30T02:11:25.750Z,10.60
2018-09-30T02:13:54.434Z,10.60
2018-09-30T02:16:25.717Z,10.50
2018-09-30T02:18:54.324Z,10.50
2018-09-30T02:21:24.094Z,10.50
2018-09-30T02:23:52.853Z,10.50
2018-09-30T02:26:21.682Z,11.90
2018-09-30T02:28:50.679Z,10.40
2018-09-30T02:31:19.391Z,10.40
2018-09-30T02:33:48.098Z,10.40
2018-09-30T02:36:18.464Z,10.40
2018-09-30T02:38:47.270Z,10.20
2018-09-30T02:41:15.951Z,10.40
2018-09-30T02:43:44.605Z,10.00
2018-09-30T02:46:15.387Z,7.80
2018-09-30T02:48:44.039Z,9.80
2018-09-30T02:51:12.648Z,9.70
2018-09-30T02:53:41.446Z,9.60
2018-09-30T02:56:10.026Z,9.60
2018-09-30T02:58:38.850Z,9.70
2018-09-30T03:01:07.750Z,9.70
2018-09-30T03:03:36.571Z,9.70
2018-09-30T03:06:05.340Z,9.90
2018-09-30T03:08:39.342Z,8.40
2018-09-30T03:11:08.029Z,9.80
2018-09-30T03:13:36.711Z,9.80
2018-09-30T03:16:05.422Z,9.90
2018-09-30T03:18:34.305Z,9.80
2018-09-30T03:21:03.323Z,9.70
2018-09-30T03:23:32.031Z,9.70
2018-09-30T03:26:00.689Z,9.10
2018-09-30T03:28:29.748Z,9.70
2018-09-30T03:30:58.435Z,9.80
2018-09-30T03:33:27.184Z,9.90
2018-09-30T03:35:55.920Z,10.10
2018-09-30T03:38:24.875Z,10.10
2018-09-30T03:40:53.571Z,10.20
2018-09-30T03:43:22.462Z,10.20
2018-09-30T03:45:51.206Z,10.10
2018-09-30T03:48:20.084Z,9.90
2018-09-30T03:50:48.948Z,11.40
2018-09-30T03:53:17.693Z,9.80
2018-09-30T03:55:46.422Z,9.90
2018-09-30T03:58:16.128Z,9.80
2018-09-30T04:00:44.789Z,9.90
2018-09-30T04:03:13.481Z,10.00
2018-09-30T04:05:42.211Z,10.10
2018-09-30T04:08:10.779Z,10.30
2018-09-30T04:10:39.539Z,10.20
2018-09-30T04:13:08.455Z,10.20
2018-09-30T04:15:37.311Z,10.20
2018-09-30T04:18:08.167Z,10.20
2018-09-30T04:20:36.978Z,10.30
2018-09-30T04:23:05.643Z,10.30
2018-09-30T04:25:34.318Z,10.20
2018-09-30T04:28:03.694Z,10.00
2018-09-30T04:30:35.225Z,9.60
2018-09-30T04:33:03.985Z,9.40
2018-09-30T04:35:32.583Z,9.20
2018-09-30T04:38:01.332Z,9.20
2018-09-30T04:40:32.339Z,9.30
2018-09-30T04:43:00.987Z,8.50
2018-09-30T04:45:31.144Z,9.40
2018-09-30T04:47:59.778Z,9.20
2018-09-30T04:50:29.026Z,8.90
2018-09-30T04:52:57.681Z,8.80
2018-09-30T04:55:26.585Z,8.70
2018-09-30T04:57:55.530Z,8.70
2018-09-30T05:00:24.201Z,8.80
2018-09-30T05:02:52.856Z,8.80
2018-09-30T05:05:24.034Z,6.60
2018-09-30T05:07:54.302Z,8.70
2018-09-30T05:10:22.963Z,8.60
2018-09-30T05:12:51.835Z,8.70
2018-09-30T05:15:20.524Z,8.80
2018-09-30T05:17:49.277Z,8.70
2018-09-30T05:20:17.973Z,8.60
2018-09-30T05:22:47.728Z,8.80
2018-09-30T05:25:16.610Z,8.90
2018-09-30T05:27:45.247Z,8.90
2018-09-30T05:30:13.910Z,8.90
2018-09-30T05:32:42.614Z,8.80
2018-09-30T05:35:11.352Z,8.70
2018-09-30T05:37:39.986Z,8.90
2018-09-30T05:40:08.723Z,9.00
2018-09-30T05:42:37.386Z,7.20
2018-09-30T05:45:06.308Z,9.00
2018-09-30T05:47:35.007Z,9.10
2018-09-30T05:50:03.683Z,9.10
2018-09-30T05:52:32.391Z,9.30
2018-09-30T05:55:01.063Z,9.40
2018-09-30T05:57:29.929Z,9.40
2018-09-30T06:00:02.169Z,9.50
2018-09-30T06:02:30.774Z,9.50
2018-09-30T06:04:59.547Z,9.20
2018-09-30T06:07:28.301Z,9.30
2018-09-30T06:09:56.995Z,7.30
2018-09-30T06:12:25.812Z,9.30
2018-09-30T06:14:54.491Z,9.10
2018-09-30T06:17:23.385Z,7.00
2018-09-30T06:19:52.082Z,9.20
2018-09-30T06:22:20.776Z,9.30
2018-09-30T06:24:51.847Z,9.10
2018-09-30T06:27:20.614Z,9.10
2018-09-30T06:29:49.386Z,9.20
2018-09-30T06:32:18.121Z,8.70
2018-09-30T06:34:48.751Z,9.40
2018-09-30T06:37:17.621Z,9.50
2018-09-30T06:39:46.390Z,9.30
2018-09-30T06:42:15.032Z,9.40
2018-09-30T06:44:44.906Z,9.20
2018-09-30T06:47:13.589Z,9.20
2018-09-30T06:49:42.187Z,9.20
2018-09-30T06:52:10.883Z,9.30
2018-09-30T06:54:41.255Z,9.40
2018-09-30T06:57:10.162Z,9.30
2018-09-30T06:59:38.855Z,9.40
2018-09-30T07:02:07.573Z,9.60
2018-09-30T07:04:36.166Z,9.60
2018-09-30T07:07:05.838Z,7.50
2018-09-30T07:09:34.631Z,9.70
2018-09-30T07:12:03.297Z,9.90
2018-09-30T07:14:32.190Z,10.00
2018-09-30T07:17:01.004Z,9.60
2018-09-30T07:19:29.572Z,9.70
2018-09-30T07:21:58.270Z,11.40
2018-09-30T07:24:27.143Z,10.00
2018-09-30T07:26:55.901Z,10.20
2018-09-30T07:29:24.990Z,9.90
2018-09-30T07:32:00.666Z,9.80
2018-09-30T07:34:37.209Z,9.80
2018-09-30T07:37:06.344Z,9.70
2018-09-30T07:39:35.103Z,9.70
2018-09-30T07:42:08.907Z,9.60
2018-09-30T07:44:45.371Z,9.80
2018-09-30T07:47:14.391Z,9.90
2018-09-30T07:49:53.607Z,10.20
2018-09-30T07:52:22.463Z,10.50
2018-09-30T07:54:51.239Z,10.60
2018-09-30T07:57:19.971Z,11.00
2018-09-30T07:59:48.815Z,11.30
2018-09-30T08:02:17.704Z,11.40
2018-09-30T08:04:46.447Z,11.60
2018-09-30T08:07:20.068Z,11.60
2018-09-30T08:09:53.441Z,11.50
2018-09-30T08:12:22.796Z,11.50
2018-09-30T08:14:51.551Z,11.10
2018-09-30T08:17:20.747Z,11.20
2018-09-30T08:19:49.614Z,11.50
2018-09-30T08:22:18.434Z,11.60
2018-09-30T08:24:47.126Z,11.50
2018-09-30T08:27:15.719Z,11.30
2018-09-30T08:29:44.482Z,11.70
2018-09-30T08:32:13.180Z,12.00
2018-09-30T08:34:43.437Z,12.00
2018-09-30T08:37:12.469Z,12.10
2018-09-30T08:39:41.959Z,11.80
2018-09-30T08:42:12.209Z,11.90
2018-09-30T08:44:42.187Z,12.00
2018-09-30T08:47:11.002Z,12.40
2018-09-30T08:49:40.769Z,12.50
2018-09-30T08:52:09.758Z,12.70
2018-09-30T08:54:38.450Z,12.90
2018-09-30T08:57:10.913Z,13.00
2018-09-30T08:59:39.620Z,13.80
2018-09-30T09:02:08.499Z,13.00
2018-09-30T09:04:40.230Z,12.80
2018-09-30T09:07:09.017Z,12.40
2018-09-30T09:09:37.682Z,12.30
2018-09-30T09:12:07.556Z,12.40
2018-09-30T09:14:36.528Z,12.70
2018-09-30T09:17:05.268Z,12.60
2018-09-30T09:19:34.281Z,12.80
2018-09-30T09:22:03.005Z,13.00
2018-09-30T09:24:31.786Z,13.30
2018-09-30T09:27:00.511Z,13.30
2018-09-30T09:29:29.319Z,13.50
2018-09-30T09:31:58.884Z,13.50
2018-09-30T09:34:36.062Z,13.80
2018-09-30T09:37:07.802Z,13.90
2018-09-30T09:39:36.535Z,13.50
2018-09-30T09:42:06.007Z,13.60
2018-09-30T09:44:34.774Z,13.90
2018-09-30T09:47:03.623Z,11.80
2018-09-30T09:49:34.259Z,13.90
2018-09-30T09:52:03.086Z,14.00
2018-09-30T09:54:32.000Z,13.50
2018-09-30T09:57:03.906Z,13.90
2018-09-30T09:59:32.650Z,13.90
2018-09-30T10:02:04.537Z,13.90
2018-09-30T10:04:33.346Z,14.00
2018-09-30T10:07:02.471Z,14.20
2018-09-30T10:09:31.245Z,14.30
2018-09-30T10:12:03.141Z,14.40
2018-09-30T10:14:32.054Z,14.90
2018-09-30T10:17:00.855Z,16.00
2018-09-30T10:19:30.874Z,17.10
2018-09-30T10:21:59.564Z,17.80
2018-09-30T10:24:28.441Z,18.10
2018-09-30T10:26:57.287Z,18.20
2018-09-30T10:29:29.129Z,18.40
2018-09-30T10:31:57.967Z,19.60
2018-09-30T10:34:26.859Z,19.90
2018-09-30T10:36:55.586Z,20.10
2018-09-30T10:39:24.410Z,20.50
2018-09-30T10:41:53.111Z,21.40
2018-09-30T10:44:22.004Z,20.70
2018-09-30T10:46:51.153Z,20.80
2018-09-30T10:49:19.853Z,20.90
2018-09-30T10:51:48.535Z,21.10
2018-09-30T10:54:17.295Z,21.70
2018-09-30T10:56:46.131Z,22.70
2018-09-30T10:59:14.794Z,21.00
2018-09-30T11:01:43.641Z,19.70
2018-09-30T11:04:12.327Z,21.30
2018-09-30T11:06:41.361Z,20.10
2018-09-30T11:09:10.390Z,20.10
2018-09-30T11:11:39.113Z,20.90
2018-09-30T11:14:07.850Z,21.60
2018-09-30T11:16:40.842Z,22.50
2018-09-30T11:19:09.596Z,23.00
2018-09-30T11:21:38.382Z,24.60
2018-09-30T11:24:07.355Z,25.20
2018-09-30T11:26:36.359Z,25.20
2018-09-30T11:29:05.213Z,25.30
2018-09-30T11:31:33.974Z,25.30
2018-09-30T11:34:02.662Z,24.90
2018-09-30T11:36:32.978Z,24.80
2018-09-30T11:39:01.615Z,24.80
2018-09-30T11:41:30.372Z,24.50
2018-09-30T11:44:00.290Z,20.70
2018-09-30T11:46:29.057Z,21.50
2018-09-30T11:49:00.043Z,22.70
2018-09-30T11:51:30.399Z,21.90
2018-09-30T11:53:59.059Z,23.30
2018-09-30T11:56:30.681Z,22.00
2018-09-30T11:58:59.325Z,23.40
2018-09-30T12:01:28.106Z,24.40
2018-09-30T12:03:58.574Z,24.20
2018-09-30T12:06:28.046Z,23.50
2018-09-30T12:08:57.123Z,23.70
2018-09-30T12:11:26.156Z,25.30
2018-09-30T12:13:54.925Z,26.10
2018-09-30T12:16:23.633Z,26.50
2018-09-30T12:18:52.527Z,26.20
2018-09-30T12:21:21.376Z,26.10
2018-09-30T12:23:50.133Z,26.50
2018-09-30T12:26:18.832Z,26.80
2018-09-30T12:30:16.892Z,26.90
2018-09-30T12:32:45.681Z,27.00
2018-09-30T12:35:14.359Z,26.40
2018-09-30T12:37:43.331Z,26.50
2018-09-30T12:40:12.131Z,27.20
2018-09-30T12:42:41.233Z,26.20
2018-09-30T12:45:09.998Z,26.50
2018-09-30T12:47:38.774Z,26.50
2018-09-30T12:50:09.948Z,26.50
2018-09-30T12:52:41.383Z,26.00
2018-09-30T12:55:10.135Z,24.30
2018-09-30T12:57:40.405Z,25.80
2018-09-30T13:00:09.963Z,24.20
2018-09-30T13:02:41.254Z,25.20
2018-09-30T13:05:10.156Z,26.50
2018-09-30T13:07:38.853Z,26.20
2018-09-30T13:10:07.786Z,26.60
2018-09-30T13:12:36.443Z,24.30
2018-09-30T13:15:05.235Z,24.70
2018-09-30T13:17:34.030Z,25.20
2018-09-30T13:20:02.738Z,26.30
2018-09-30T13:22:31.412Z,25.50
2018-09-30T13:25:00.187Z,24.10
2018-09-30T13:27:28.875Z,22.90
2018-09-30T13:29:57.695Z,20.00
2018-09-30T13:32:26.479Z,21.30
2018-09-30T13:34:56.183Z,21.00
2018-09-30T13:37:24.921Z,21.00
2018-09-30T13:39:53.690Z,20.80
2018-09-30T13:42:22.727Z,19.80
2018-09-30T13:44:51.479Z,19.50
2018-09-30T13:47:20.162Z,19.50
2018-09-30T13:49:48.836Z,19.40
2018-09-30T13:52:17.526Z,19.60
2018-09-30T13:54:46.291Z,19.90
2018-09-30T13:57:14.964Z,19.70
2018-09-30T13:59:43.597Z,17.60
2018-09-30T14:02:12.353Z,19.70
2018-09-30T14:04:41.041Z,19.90
2018-09-30T14:07:09.722Z,19.80
2018-09-30T14:09:39.039Z,19.70
2018-09-30T14:12:07.897Z,19.90
2018-09-30T14:14:38.370Z,20.00
2018-09-30T14:17:07.301Z,20.20
2018-09-30T14:19:40.439Z,18.60
2018-09-30T14:26:38.024Z,19.80
2018-09-30T14:29:21.268Z,19.50
2018-09-30T14:31:49.990Z,19.30
2018-09-30T14:34:19.010Z,19.40
2018-09-30T14:36:47.636Z,19.10
2018-09-30T14:39:16.501Z,19.20
2018-09-30T14:41:45.385Z,19.40
2018-09-30T14:44:14.124Z,19.20
2018-09-30T14:46:43.520Z,17.70
2018-09-30T14:49:12.326Z,19.20
2018-09-30T14:51:41.443Z,19.00
2018-09-30T14:54:10.211Z,19.00
2018-09-30T14:56:42.489Z,19.10
2018-09-30T14:59:11.204Z,19.10
2018-09-30T15:01:42.325Z,19.00
2018-09-30T15:04:11.873Z,19.50
2018-09-30T15:06:40.624Z,19.00
2018-09-30T15:09:11.125Z,19.00
2018-09-30T15:11:39.808Z,18.80
2018-09-30T15:14:08.715Z,18.80
2018-09-30T15:16:37.570Z,18.60
2018-09-30T15:19:06.244Z,18.70
2018-09-30T15:21:37.274Z,18.40
2018-09-30T15:24:05.965Z,18.30
2018-09-30T15:26:40.854Z,18.40
2018-09-30T15:29:10.051Z,18.40
2018-09-30T15:31:40.602Z,18.50
2018-09-30T15:34:09.598Z,18.50
2018-09-30T15:36:39.234Z,18.50
2018-09-30T15:39:09.698Z,18.60
2018-09-30T15:41:38.734Z,18.70
2018-09-30T15:44:07.799Z,18.70
2018-09-30T15:46:36.771Z,18.70
2018-09-30T15:49:05.503Z,18.50
2018-09-30T15:51:34.937Z,18.50
2018-09-30T15:54:03.886Z,18.30
2018-09-30T15:56:32.787Z,18.30
2018-09-30T15:59:01.687Z,18.40
2018-09-30T16:01:30.437Z,18.50
2018-09-30T16:03:59.122Z,18.50
2018-09-30T16:06:27.940Z,18.50
2018-09-30T16:08:56.816Z,18.50
2018-09-30T16:11:25.800Z,18.40
2018-09-30T16:13:55.672Z,18.70
2018-09-30T16:16:24.621Z,18.40
2018-09-30T16:18:53.679Z,18.40
2018-09-30T16:21:22.342Z,18.30
2018-09-30T16:23:52.987Z,18.30
2018-09-30T16:26:21.834Z,16.40
2018-09-30T16:28:50.812Z,18.20
2018-09-30T16:31:19.634Z,18.20
2018-09-30T16:33:48.552Z,18.10
2018-09-30T16:36:17.342Z,18.00
2018-09-30T16:38:46.166Z,18.00
2018-09-30T16:41:15.175Z,17.00
2018-09-30T16:43:43.990Z,17.90
2018-09-30T16:46:12.660Z,17.70
2018-09-30T16:48:41.389Z,16.90
2018-09-30T16:51:10.406Z,17.40
2018-09-30T16:53:39.452Z,17.20
2018-09-30T16:56:08.387Z,17.00
2018-09-30T16:58:37.268Z,16.90
2018-09-30T17:01:06.196Z,16.80
2018-09-30T17:03:35.327Z,16.70
2018-09-30T17:06:04.202Z,16.50
2018-09-30T17:08:33.454Z,16.40
2018-09-30T17:11:04.397Z,16.30
2018-09-30T17:13:33.552Z,16.20
2018-09-30T17:16:03.963Z,14.90
2018-09-30T17:18:32.892Z,16.10
2018-09-30T17:21:04.791Z,16.00
2018-09-30T17:23:33.718Z,15.90
2018-09-30T17:26:06.381Z,15.80
2018-09-30T17:28:35.196Z,15.80
2018-09-30T17:31:03.922Z,15.70
2018-09-30T17:33:33.009Z,15.60
2018-09-30T17:36:03.146Z,15.50
2018-09-30T17:38:33.929Z,15.40
2018-09-30T17:41:03.468Z,15.40
2018-09-30T17:43:32.910Z,15.30
2018-09-30T17:46:01.708Z,15.20
2018-09-30T17:48:31.519Z,15.20
2018-09-30T17:51:00.475Z,15.20
2018-09-30T17:53:31.850Z,15.20
2018-09-30T17:56:00.691Z,15.20
2018-09-30T17:58:30.723Z,15.10
2018-09-30T18:00:59.514Z,15.10
2018-09-30T18:03:28.823Z,13.70
2018-09-30T18:05:57.707Z,15.10
2018-09-30T18:08:27.562Z,15.00
2018-09-30T18:10:57.291Z,14.90
2018-09-30T18:13:26.076Z,15.30
2018-09-30T18:15:54.819Z,14.70
2018-09-30T18:18:23.675Z,14.70
2018-09-30T18:20:52.478Z,14.60
2018-09-30T18:23:21.509Z,14.70
2018-09-30T18:25:50.385Z,14.60
2018-09-30T18:28:19.266Z,14.50
2018-09-30T18:30:48.177Z,14.10
2018-09-30T18:33:17.504Z,14.40
2018-09-30T18:35:46.281Z,12.60
2018-09-30T18:38:14.964Z,14.40
2018-09-30T18:40:45.496Z,14.30
2018-09-30T18:43:19.358Z,14.30
2018-09-30T18:45:49.859Z,14.30
2018-09-30T18:48:18.566Z,14.20
2018-09-30T18:50:51.553Z,14.20
2018-09-30T18:53:20.268Z,14.10
2018-09-30T18:55:49.379Z,14.00
2018-09-30T18:58:18.099Z,13.90
2018-09-30T19:00:49.955Z,13.90
2018-09-30T19:03:19.326Z,13.80
2018-09-30T19:05:48.215Z,13.70
2018-09-30T19:08:17.013Z,13.70
2018-09-30T19:10:45.633Z,13.70
2018-09-30T19:13:14.389Z,12.60
2018-09-30T19:15:43.359Z,13.60
2018-09-30T19:18:12.124Z,13.20
2018-09-30T19:20:40.877Z,13.50
2018-09-30T19:23:10.155Z,13.50
2018-09-30T19:25:38.897Z,13.50
2018-09-30T19:28:07.681Z,13.40
2018-09-30T19:30:36.433Z,13.40
2018-09-30T19:33:05.489Z,13.30
2018-09-30T19:35:35.772Z,13.30
2018-09-30T19:38:04.474Z,13.20
2018-09-30T19:40:33.163Z,13.20
2018-09-30T19:43:02.022Z,12.20
2018-09-30T19:45:31.556Z,13.20
2018-09-30T19:48:00.306Z,13.10
2018-09-30T19:50:29.365Z,13.10
2018-09-30T19:52:58.213Z,13.00
2018-09-30T19:55:27.200Z,13.00
2018-09-30T19:57:56.826Z,13.00
2018-09-30T20:00:25.762Z,12.30
2018-09-30T20:02:54.639Z,13.10
2018-09-30T20:05:23.401Z,13.00
2018-09-30T20:07:52.351Z,13.00
2018-09-30T20:10:21.062Z,13.00
2018-09-30T20:12:50.367Z,13.00
2018-09-30T20:15:19.599Z,11.90
2018-09-30T20:17:48.406Z,12.90
2018-09-30T20:20:17.320Z,12.90
2018-09-30T20:22:46.028Z,12.80
2018-09-30T20:25:15.158Z,12.80
2018-09-30T20:27:43.982Z,12.70
2018-09-30T20:30:12.702Z,12.70
2018-09-30T20:32:41.775Z,12.60
2018-09-30T20:35:10.462Z,12.60
2018-09-30T20:37:39.171Z,12.50
2018-09-30T20:40:07.985Z,12.50
2018-09-30T20:42:37.200Z,12.40
2018-09-30T20:45:06.118Z,12.30
2018-09-30T20:47:35.111Z,12.40
2018-09-30T20:50:03.967Z,12.40
2018-09-30T20:52:32.750Z,12.40
2018-09-30T20:55:01.371Z,12.40
2018-09-30T20:57:30.166Z,12.40
2018-09-30T20:59:58.931Z,12.40
2018-09-30T21:02:27.540Z,12.30
2018-09-30T21:04:56.480Z,12.30
2018-09-30T21:07:25.999Z,12.30
2018-09-30T21:09:55.056Z,12.30
2018-09-30T21:12:23.839Z,12.30
2018-09-30T21:14:52.554Z,12.30
2018-09-30T21:17:21.345Z,12.20
2018-09-30T21:19:50.062Z,12.10
2018-09-30T21:22:18.784Z,12.10
2018-09-30T21:24:47.630Z,12.00
2018-09-30T21:27:16.532Z,12.00
2018-09-30T21:29:45.274Z,9.70
2018-09-30T21:32:13.966Z,11.90
2018-09-30T21:34:42.625Z,11.90
2018-09-30T21:37:11.353Z,11.90
2018-09-30T21:39:40.033Z,11.90
2018-09-30T21:42:10.414Z,11.90
2018-09-30T21:44:39.166Z,11.90
2018-09-30T21:47:07.880Z,11.90
2018-09-30T21:49:36.591Z,11.80
2018-09-30T21:52:05.258Z,11.80
2018-09-30T21:54:33.933Z,11.80
2018-09-30T21:57:02.623Z,11.80
2018-09-30T21:59:31.362Z,11.80
2018-09-30T22:02:00.216Z,11.80
2018-09-30T22:04:28.898Z,11.70
2018-09-30T22:06:57.590Z,11.70
2018-09-30T22:09:27.149Z,12.60
2018-09-30T22:11:55.889Z,11.50
2018-09-30T22:14:25.659Z,11.60
2018-09-30T22:16:54.341Z,11.50
2018-09-30T22:19:24.463Z,11.50
2018-09-30T22:21:53.205Z,11.50
2018-09-30T22:24:21.853Z,11.50
2018-09-30T22:26:50.597Z,11.60
2018-09-30T22:29:19.209Z,11.60
2018-09-30T22:31:47.972Z,11.60
2018-09-30T22:34:16.672Z,11.50
2018-09-30T22:36:45.427Z,11.50
2018-09-30T22:39:14.170Z,11.30
2018-09-30T22:41:42.792Z,11.10
2018-09-30T22:44:11.392Z,11.10
2018-09-30T22:46:40.183Z,11.20
2018-09-30T22:49:09.076Z,11.40
2018-09-30T22:51:37.719Z,11.50
2018-09-30T22:54:06.772Z,11.40
2018-09-30T22:56:35.446Z,11.30
2018-09-30T22:59:04.126Z,11.30
2018-09-30T23:01:32.972Z,11.20
2018-09-30T23:04:01.733Z,11.10
2018-09-30T23:06:30.489Z,11.10
2018-09-30T23:08:59.359Z,11.20
2018-09-30T23:11:28.041Z,11.10
2018-09-30T23:13:57.653Z,11.10
2018-09-30T23:16:26.293Z,11.00
2018-09-30T23:18:54.984Z,10.90
2018-09-30T23:21:24.047Z,10.90
2018-09-30T23:23:52.935Z,10.80
2018-09-30T23:26:21.773Z,10.70
2018-09-30T23:28:50.329Z,10.70
2018-09-30T23:31:19.142Z,10.70
2018-09-30T23:33:47.871Z,10.60
2018-09-30T23:37:46.777Z,10.60
2018-09-30T23:40:15.473Z,10.70
2018-09-30T23:42:44.196Z,10.70
2018-09-30T23:45:12.852Z,10.70
2018-09-30T23:47:41.537Z,10.80
2018-09-30T23:50:10.310Z,10.80
2018-09-30T23:52:38.982Z,10.70
2018-09-30T23:55:09.020Z,10.70
2018-09-30T23:57:37.732Z,10.60
